createdAt,value
2023-02-13T00:00:22.656Z,11.30
2023-02-13T00:02:50.021Z,13.37
2023-02-13T00:05:17.104Z,12.90
2023-02-13T00:07:43.837Z,12.30
2023-02-13T00:10:10.951Z,12.17
2023-02-13T00:12:37.706Z,13.20
2023-02-13T00:15:05.389Z,11.50
2023-02-13T00:17:32.787Z,11.67
2023-02-13T00:20:00.137Z,13.07
2023-02-13T00:22:27.193Z,12.93
2023-02-13T00:24:54.927Z,12.10
2023-02-13T00:27:21.679Z,13.33
2023-02-13T00:29:48.435Z,12.77
2023-02-13T00:32:15.347Z,12.30
2023-02-13T00:34:44.060Z,12.77
2023-02-13T00:37:10.964Z,12.80
2023-02-13T00:39:38.702Z,12.93
2023-02-13T00:42:06.201Z,11.97
2023-02-13T00:44:33.094Z,10.20
2023-02-13T00:46:59.836Z,10.87
2023-02-13T00:49:26.572Z,9.33
2023-02-13T00:51:53.309Z,8.53
2023-02-13T00:54:20.275Z,11.03
2023-02-13T00:56:47.154Z,11.23
2023-02-13T00:59:14.101Z,6.77
2023-02-13T01:01:40.978Z,6.40
2023-02-13T01:04:07.845Z,6.67
2023-02-13T01:06:34.811Z,6.83
2023-02-13T01:09:03.596Z,8.97
2023-02-13T01:11:30.444Z,9.27
2023-02-13T01:13:57.189Z,9.33
2023-02-13T01:16:24.059Z,9.80
2023-02-13T01:18:50.956Z,9.90
2023-02-13T01:21:20.524Z,9.33
2023-02-13T01:23:47.653Z,11.00
2023-02-13T01:26:21.085Z,8.40
2023-02-13T01:28:48.092Z,12.60
2023-02-13T01:31:14.937Z,12.23
2023-02-13T01:33:41.902Z,11.47
2023-02-13T01:36:10.776Z,13.33
2023-02-13T01:38:37.692Z,12.37
2023-02-13T01:41:04.743Z,10.77
2023-02-13T01:43:50.257Z,11.60
2023-02-13T01:46:22.465Z,10.70
2023-02-13T01:48:51.268Z,11.10
2023-02-13T01:51:23.726Z,12.20
2023-02-13T01:53:57.822Z,11.67
2023-02-13T01:56:33.634Z,13.30
2023-02-13T01:59:09.661Z,11.93
2023-02-13T02:01:37.903Z,11.00
2023-02-13T02:04:15.998Z,12.60
2023-02-13T02:06:57.097Z,11.93
2023-02-13T02:09:28.580Z,11.47
2023-02-13T02:12:01.203Z,11.77
2023-02-13T02:14:28.394Z,11.80
2023-02-13T02:16:55.870Z,11.63
2023-02-13T02:19:47.272Z,11.67
2023-02-13T02:22:35.759Z,11.97
2023-02-13T02:25:23.040Z,12.53
2023-02-13T02:27:55.750Z,12.70
2023-02-13T02:30:37.676Z,12.07
2023-02-13T02:33:20.063Z,12.33
2023-02-13T02:35:56.792Z,13.27
2023-02-13T02:38:36.025Z,14.63
2023-02-13T02:41:11.946Z,13.03
2023-02-13T02:44:07.810Z,16.90
2023-02-13T02:47:00.252Z,18.97
2023-02-13T02:49:45.967Z,22.23
2023-02-13T02:52:20.122Z,15.17
2023-02-13T02:55:08.712Z,15.73
2023-02-13T02:58:01.258Z,18.33
2023-02-13T03:00:50.582Z,25.23
2023-02-13T03:03:40.087Z,18.00
2023-02-13T03:06:17.232Z,21.47
2023-02-13T03:09:11.225Z,17.37
2023-02-13T03:11:57.883Z,24.43
2023-02-13T03:14:27.285Z,19.53
2023-02-13T03:17:14.605Z,15.67
2023-02-13T03:20:13.911Z,16.93
2023-02-13T03:22:58.011Z,16.77
2023-02-13T03:25:34.249Z,19.37
2023-02-13T03:28:22.736Z,18.60
2023-02-13T03:30:57.274Z,17.53
2023-02-13T03:33:40.591Z,21.37
2023-02-13T03:36:34.902Z,17.97
2023-02-13T03:39:12.731Z,15.13
2023-02-13T03:41:50.458Z,15.17
2023-02-13T03:45:09.407Z,16.30
2023-02-13T03:47:37.232Z,18.03
2023-02-13T03:50:05.885Z,16.23
2023-02-13T03:52:39.245Z,15.47
2023-02-13T03:55:35.069Z,16.93
2023-02-13T03:58:31.256Z,14.90
2023-02-13T04:01:02.424Z,15.97
2023-02-13T04:03:40.907Z,14.23
2023-02-13T04:06:15.660Z,13.37
2023-02-13T04:08:43.125Z,14.57
2023-02-13T04:11:12.937Z,14.83
2023-02-13T04:13:49.280Z,14.30
2023-02-13T04:16:33.737Z,12.90
2023-02-13T04:19:01.320Z,12.83
2023-02-13T04:21:28.238Z,13.10
2023-02-13T04:23:54.968Z,13.80
2023-02-13T04:26:23.298Z,13.73
2023-02-13T04:28:50.201Z,13.23
2023-02-13T04:31:17.124Z,17.33
2023-02-13T04:33:43.977Z,13.13
2023-02-13T04:36:10.678Z,15.13
2023-02-13T04:38:37.494Z,14.40
2023-02-13T04:41:04.284Z,15.07
2023-02-13T04:43:31.098Z,15.10
2023-02-13T04:45:57.913Z,15.60
2023-02-13T04:48:24.761Z,15.47
2023-02-13T04:50:51.464Z,15.13
2023-02-13T04:53:18.177Z,17.43
2023-02-13T04:55:44.954Z,17.33
2023-02-13T04:58:11.877Z,18.93
2023-02-13T05:00:38.678Z,18.73
2023-02-13T05:03:11.078Z,18.57
2023-02-13T05:05:38.970Z,17.27
2023-02-13T05:08:07.293Z,21.07
2023-02-13T05:10:34.638Z,20.00
2023-02-13T05:13:02.303Z,18.97
2023-02-13T05:15:29.364Z,21.20
2023-02-13T05:17:56.081Z,21.30
2023-02-13T05:20:22.917Z,20.50
2023-02-13T05:23:10.599Z,22.63
2023-02-13T05:25:38.866Z,21.23
2023-02-13T05:28:26.520Z,20.50
2023-02-13T05:30:53.566Z,21.27
2023-02-13T05:33:20.329Z,20.80
2023-02-13T05:35:47.037Z,21.63
2023-02-13T05:38:13.834Z,23.60
2023-02-13T05:40:40.746Z,23.50
2023-02-13T05:43:07.502Z,20.33
2023-02-13T05:45:34.230Z,22.57
2023-02-13T05:48:01.107Z,22.03
2023-02-13T05:50:27.972Z,22.87
2023-02-13T05:52:54.744Z,23.03
2023-02-13T05:55:21.714Z,26.00
2023-02-13T05:57:48.494Z,24.40
2023-02-13T06:00:16.308Z,24.63
2023-02-13T06:02:43.169Z,24.20
2023-02-13T06:05:09.911Z,25.53
2023-02-13T06:07:36.705Z,23.07
2023-02-13T06:10:03.580Z,21.53
2023-02-13T06:12:30.352Z,23.00
2023-02-13T06:14:57.100Z,21.77
2023-02-13T06:17:23.931Z,20.43
2023-02-13T06:19:50.731Z,20.50
2023-02-13T06:22:17.787Z,19.53
2023-02-13T06:24:44.609Z,19.10
2023-02-13T06:27:11.318Z,20.97
2023-02-13T06:29:38.023Z,20.53
2023-02-13T06:32:04.860Z,20.17
2023-02-13T06:34:31.662Z,21.17
2023-02-13T06:36:59.426Z,21.93
2023-02-13T06:39:26.133Z,20.93
2023-02-13T06:41:52.903Z,20.30
2023-02-13T06:44:19.821Z,20.27
2023-02-13T06:46:47.789Z,22.43
2023-02-13T06:49:14.766Z,23.93
2023-02-13T06:51:41.490Z,22.83
2023-02-13T06:54:08.536Z,25.63
2023-02-13T06:56:35.304Z,24.97
2023-02-13T06:59:01.963Z,22.57
2023-02-13T07:01:28.830Z,26.27
2023-02-13T07:03:55.732Z,21.53
2023-02-13T07:06:22.506Z,23.27
2023-02-13T07:08:51.385Z,25.03
2023-02-13T07:11:23.787Z,24.07
2023-02-13T07:13:50.580Z,20.43
2023-02-13T07:16:17.469Z,21.00
2023-02-13T07:18:44.363Z,20.80
2023-02-13T07:21:11.520Z,21.93
2023-02-13T07:23:38.357Z,20.17
2023-02-13T07:26:05.289Z,17.93
2023-02-13T07:28:32.916Z,18.70
2023-02-13T07:31:05.693Z,19.97
2023-02-13T07:33:34.051Z,18.43
2023-02-13T07:36:03.513Z,18.00
2023-02-13T07:38:31.595Z,18.10
2023-02-13T07:41:02.768Z,20.07
2023-02-13T07:43:29.903Z,19.67
2023-02-13T07:46:01.011Z,21.07
2023-02-13T07:48:29.023Z,22.47
2023-02-13T07:51:00.465Z,16.67
2023-02-13T07:53:27.287Z,29.40
2023-02-13T07:55:53.971Z,20.77
2023-02-13T07:58:20.763Z,20.13
2023-02-13T08:00:47.599Z,16.77
2023-02-13T08:03:14.461Z,21.60
2023-02-13T08:05:41.316Z,20.13
2023-02-13T08:08:08.002Z,19.40
2023-02-13T08:10:53.247Z,20.70
2023-02-13T08:13:20.016Z,18.10
2023-02-13T08:15:47.188Z,17.20
2023-02-13T08:18:13.962Z,18.87
2023-02-13T08:20:40.709Z,21.73
2023-02-13T08:23:10.167Z,20.10
2023-02-13T08:25:38.612Z,22.00
2023-02-13T08:28:06.215Z,22.47
2023-02-13T08:30:32.987Z,19.97
2023-02-13T08:32:59.957Z,23.17
2023-02-13T08:35:29.693Z,21.87
2023-02-13T08:37:57.052Z,20.60
2023-02-13T08:40:25.463Z,21.80
2023-02-13T08:42:52.846Z,22.27
2023-02-13T08:45:19.574Z,19.37
2023-02-13T08:47:46.242Z,21.80
2023-02-13T08:50:13.077Z,14.77
2023-02-13T08:52:39.945Z,20.77
2023-02-13T08:55:06.831Z,19.37
2023-02-13T08:57:33.681Z,21.40
2023-02-13T09:00:00.401Z,21.47
2023-02-13T09:02:27.351Z,18.83
2023-02-13T09:04:54.184Z,17.10
2023-02-13T09:07:21.074Z,18.80
2023-02-13T09:09:47.934Z,18.20
2023-02-13T09:12:14.730Z,18.93
2023-02-13T09:14:41.672Z,18.60
2023-02-13T09:17:08.740Z,19.53
2023-02-13T09:19:35.633Z,20.27
2023-02-13T09:22:02.408Z,17.80
2023-02-13T09:24:29.336Z,19.03
2023-02-13T09:26:56.730Z,18.33
2023-02-13T09:29:25.413Z,16.67
2023-02-13T09:31:53.041Z,19.40
2023-02-13T09:34:20.156Z,19.00
2023-02-13T09:36:51.061Z,19.73
2023-02-13T09:39:18.603Z,18.87
2023-02-13T09:41:48.734Z,19.30
2023-02-13T09:44:38.360Z,16.77
2023-02-13T09:47:28.289Z,16.13
2023-02-13T09:50:11.887Z,19.00
2023-02-13T09:52:39.217Z,20.00
2023-02-13T09:55:22.115Z,17.67
2023-02-13T09:58:00.915Z,18.33
2023-02-13T10:00:40.020Z,17.40
2023-02-13T10:03:32.696Z,17.77
2023-02-13T10:06:08.244Z,17.50
2023-02-13T10:08:44.373Z,17.03
2023-02-13T10:11:29.447Z,15.03
2023-02-13T10:14:16.478Z,17.00
2023-02-13T10:17:07.997Z,16.23
2023-02-13T10:19:46.790Z,17.50
2023-02-13T10:22:17.981Z,18.43
2023-02-13T10:24:56.462Z,18.30
2023-02-13T10:27:26.566Z,17.37
2023-02-13T10:30:05.103Z,16.40
2023-02-13T10:32:41.966Z,16.23
2023-02-13T10:35:31.274Z,16.00
2023-02-13T10:37:59.831Z,17.73
2023-02-13T10:40:40.306Z,16.27
2023-02-13T10:43:15.527Z,15.47
2023-02-13T10:45:57.239Z,15.77
2023-02-13T10:48:27.569Z,16.70
2023-02-13T10:51:03.274Z,17.00
2023-02-13T10:53:52.360Z,18.07
2023-02-13T10:56:43.883Z,17.17
2023-02-13T10:59:24.775Z,15.10
2023-02-13T11:02:01.068Z,20.20
2023-02-13T11:04:29.570Z,14.93
2023-02-13T11:07:02.072Z,16.50
2023-02-13T11:09:32.423Z,17.50
2023-02-13T11:12:08.031Z,16.83
2023-02-13T11:14:34.816Z,16.93
2023-02-13T11:17:05.852Z,17.13
2023-02-13T11:19:37.306Z,16.77
2023-02-13T11:22:26.294Z,16.07
2023-02-13T11:25:00.871Z,16.27
2023-02-13T11:27:32.917Z,16.37
2023-02-13T11:30:06.067Z,16.70
2023-02-13T11:32:34.884Z,15.53
2023-02-13T11:35:27.443Z,16.17
2023-02-13T11:38:20.268Z,15.33
2023-02-13T11:40:49.692Z,15.03
2023-02-13T11:43:53.553Z,15.37
2023-02-13T11:46:25.295Z,14.60
2023-02-13T11:49:01.241Z,13.67
2023-02-13T11:51:46.899Z,15.47
2023-02-13T11:54:22.867Z,14.33
2023-02-13T11:57:05.801Z,15.40
2023-02-13T11:59:41.861Z,15.70
2023-02-13T12:02:49.882Z,14.60
2023-02-13T12:05:25.900Z,15.23
2023-02-13T12:07:58.747Z,15.20
2023-02-13T12:10:28.083Z,14.50
2023-02-13T12:12:57.983Z,14.27
2023-02-13T12:15:36.857Z,13.83
2023-02-13T12:18:38.870Z,14.40
2023-02-13T12:21:24.072Z,14.13
2023-02-13T12:24:24.150Z,13.67
2023-02-13T12:27:01.938Z,14.43
2023-02-13T12:29:49.812Z,13.53
2023-02-13T12:32:28.818Z,14.13
2023-02-13T12:35:20.459Z,12.90
2023-02-13T12:38:04.339Z,14.03
2023-02-13T12:40:44.093Z,14.80
2023-02-13T12:43:16.847Z,13.60
2023-02-13T12:45:58.948Z,15.13
2023-02-13T12:48:51.014Z,14.43
2023-02-13T12:51:38.502Z,14.23
2023-02-13T12:54:29.084Z,13.17
2023-02-13T12:57:08.929Z,13.73
2023-02-13T12:59:51.584Z,14.07
2023-02-13T13:02:21.259Z,13.07
2023-02-13T13:05:13.626Z,15.90
2023-02-13T13:08:08.708Z,18.63
2023-02-13T13:10:56.829Z,14.40
2023-02-13T13:13:47.463Z,15.07
2023-02-13T13:16:27.607Z,13.77
2023-02-13T13:19:08.054Z,14.03
2023-02-13T13:21:52.670Z,15.83
2023-02-13T13:24:41.446Z,15.10
2023-02-13T13:27:20.705Z,22.20
2023-02-13T13:29:55.999Z,34.37
2023-02-13T13:32:23.675Z,19.57
2023-02-13T13:34:51.159Z,15.93
2023-02-13T13:37:30.504Z,16.20
2023-02-13T13:40:42.011Z,16.40
2023-02-13T13:43:20.506Z,16.00
2023-02-13T13:45:57.625Z,17.53
2023-02-13T13:48:59.395Z,16.07
2023-02-13T13:51:26.675Z,16.33
2023-02-13T13:54:03.535Z,17.63
2023-02-13T13:56:49.457Z,17.20
2023-02-13T13:59:37.595Z,16.70
2023-02-13T14:02:19.738Z,17.17
2023-02-13T14:05:25.928Z,15.73
2023-02-13T14:08:01.772Z,15.73
2023-02-13T14:10:28.684Z,17.50
2023-02-13T14:12:58.665Z,16.83
2023-02-13T14:18:47.162Z,17.30
2023-02-13T14:21:23.222Z,17.00
2023-02-13T14:23:53.031Z,16.97
2023-02-13T14:26:35.212Z,17.17
2023-02-13T14:29:11.065Z,16.23
2023-02-13T14:31:41.524Z,16.50
2023-02-13T14:34:11.317Z,18.50
2023-02-13T14:36:39.589Z,17.67
2023-02-13T14:39:28.884Z,18.80
2023-02-13T14:41:59.804Z,18.33
2023-02-13T14:44:50.815Z,18.03
2023-02-13T14:47:22.752Z,17.40
2023-02-13T14:49:51.347Z,18.87
2023-02-13T14:52:27.572Z,18.63
2023-02-13T14:55:01.787Z,18.47
2023-02-13T14:57:38.092Z,19.00
2023-02-13T15:00:19.940Z,18.30
2023-02-13T15:02:51.490Z,19.93
2023-02-13T15:05:20.451Z,19.47
2023-02-13T15:07:49.309Z,20.07
2023-02-13T15:10:42.301Z,20.20
2023-02-13T15:13:18.445Z,19.47
2023-02-13T15:15:51.423Z,19.50
2023-02-13T15:18:24.175Z,19.30
2023-02-13T15:20:56.037Z,19.43
2023-02-13T15:23:26.572Z,19.73
2023-02-13T15:26:20.293Z,21.17
2023-02-13T15:29:17.416Z,19.53
2023-02-13T15:31:51.524Z,20.80
2023-02-13T15:34:25.681Z,20.93
2023-02-13T15:36:53.191Z,19.00
2023-02-13T15:39:26.556Z,20.37
2023-02-13T15:41:59.873Z,22.80
2023-02-13T15:44:30.988Z,23.40
2023-02-13T15:47:31.409Z,24.00
2023-02-13T15:49:58.650Z,25.03
2023-02-13T15:52:38.027Z,22.47
2023-02-13T15:55:05.519Z,22.90
2023-02-13T15:57:33.170Z,21.83
2023-02-13T16:00:01.450Z,23.47
2023-02-13T16:02:40.744Z,24.03
2023-02-13T16:05:11.227Z,22.43
2023-02-13T16:07:50.081Z,22.03
2023-02-13T16:10:35.087Z,21.47
2023-02-13T16:13:15.857Z,20.87
2023-02-13T16:15:43.431Z,21.53
2023-02-13T16:18:18.906Z,20.00
2023-02-13T16:20:45.981Z,21.10
2023-02-13T16:23:19.881Z,20.03
2023-02-13T16:25:48.479Z,21.60
2023-02-13T16:28:20.928Z,21.33
2023-02-13T16:31:00.243Z,20.10
2023-02-13T16:33:35.281Z,19.90
2023-02-13T16:36:11.379Z,20.80
2023-02-13T16:39:02.090Z,26.07
2023-02-13T16:41:31.271Z,23.57
2023-02-13T16:44:00.796Z,21.23
2023-02-13T16:46:36.496Z,19.90
2023-02-13T16:49:06.717Z,20.03
2023-02-13T16:51:38.460Z,21.67
2023-02-13T16:54:11.434Z,20.13
2023-02-13T16:56:51.398Z,19.97
2023-02-13T16:59:24.459Z,19.83
2023-02-13T17:02:29.572Z,19.83
2023-02-13T17:05:08.693Z,21.33
2023-02-13T17:07:57.708Z,22.37
2023-02-13T17:10:39.106Z,21.83
2023-02-13T17:13:09.039Z,22.87
2023-02-13T17:15:35.895Z,22.43
2023-02-13T17:18:03.007Z,21.47
2023-02-13T17:20:32.592Z,23.10
2023-02-13T17:23:02.223Z,24.07
2023-02-13T17:25:31.420Z,22.93
2023-02-13T17:28:10.597Z,22.13
2023-02-13T17:30:37.457Z,22.67
2023-02-13T17:33:07.976Z,22.97
2023-02-13T17:35:35.440Z,22.87
2023-02-13T17:38:02.417Z,22.23
2023-02-13T17:40:30.623Z,22.77
2023-02-13T17:42:59.243Z,24.83
2023-02-13T17:45:29.298Z,24.23
2023-02-13T17:47:57.751Z,23.30
2023-02-13T17:50:29.245Z,24.30
2023-02-13T17:52:57.109Z,24.60
2023-02-13T17:55:29.595Z,34.50
2023-02-13T17:57:57.843Z,37.27
2023-02-13T18:00:28.047Z,29.33
2023-02-13T18:02:55.529Z,33.57
2023-02-13T18:05:22.571Z,30.50
2023-02-13T18:07:49.709Z,32.70
2023-02-13T18:10:23.171Z,31.27
2023-02-13T18:12:51.214Z,31.97
2023-02-13T18:15:18.910Z,31.80
2023-02-13T18:17:46.493Z,31.83
2023-02-13T18:20:16.990Z,29.57
2023-02-13T18:22:44.068Z,28.13
2023-02-13T18:25:11.415Z,29.83
2023-02-13T18:27:38.284Z,29.77
2023-02-13T18:30:06.547Z,29.77
2023-02-13T18:32:33.534Z,33.73
2023-02-13T18:35:01.071Z,26.17
2023-02-13T18:37:40.497Z,27.40
2023-02-13T18:40:08.843Z,28.83
2023-02-13T18:42:36.045Z,28.80
2023-02-13T18:45:03.632Z,29.50
2023-02-13T18:47:30.698Z,33.37
2023-02-13T18:49:57.616Z,30.30
2023-02-13T18:52:24.530Z,32.20
2023-02-13T18:54:51.622Z,31.10
2023-02-13T18:57:18.412Z,31.83
2023-02-13T18:59:45.306Z,32.33
2023-02-13T19:02:12.318Z,32.10
2023-02-13T19:04:39.447Z,28.07
2023-02-13T19:07:06.335Z,28.77
2023-02-13T19:09:33.161Z,31.30
2023-02-13T19:11:59.859Z,33.47
2023-02-13T19:14:26.963Z,30.13
2023-02-13T19:16:53.868Z,28.60
2023-02-13T19:19:20.963Z,31.10
2023-02-13T19:21:47.852Z,35.50
2023-02-13T19:24:18.531Z,28.43
2023-02-13T19:26:45.341Z,32.37
2023-02-13T19:29:12.069Z,37.40
2023-02-13T19:31:38.893Z,32.20
2023-02-13T19:34:05.823Z,30.87
2023-02-13T19:36:33.034Z,27.53
2023-02-13T19:39:03.858Z,28.17
2023-02-13T19:41:30.975Z,26.97
2023-02-13T19:43:58.420Z,27.77
2023-02-13T19:46:30.701Z,27.30
2023-02-13T19:48:58.712Z,29.10
2023-02-13T19:51:30.950Z,27.77
2023-02-13T19:54:08.795Z,30.47
2023-02-13T19:56:37.592Z,29.60
2023-02-13T19:59:06.830Z,28.23
2023-02-13T20:01:33.796Z,27.53
2023-02-13T20:04:00.798Z,26.63
2023-02-13T20:06:35.720Z,27.43
2023-02-13T20:09:06.994Z,25.93
2023-02-13T20:11:33.893Z,26.27
2023-02-13T20:14:00.830Z,27.40
2023-02-13T20:16:32.793Z,27.57
2023-02-13T20:19:06.986Z,27.70
2023-02-13T20:21:34.981Z,28.77
2023-02-13T20:24:05.239Z,26.77
2023-02-13T20:26:32.110Z,27.10
2023-02-13T20:28:59.756Z,27.70
2023-02-13T20:31:27.793Z,31.10
2023-02-13T20:33:55.085Z,35.03
2023-02-13T20:36:24.917Z,29.50
2023-02-13T20:38:55.927Z,28.50
2023-02-13T20:41:25.942Z,30.37
2023-02-13T20:43:53.207Z,29.90
2023-02-13T20:46:20.026Z,32.80
2023-02-13T20:48:48.178Z,31.97
2023-02-13T20:51:16.566Z,30.13
2023-02-13T20:53:44.192Z,33.57
2023-02-13T20:56:15.665Z,41.53
2023-02-13T20:58:44.238Z,50.10
2023-02-13T21:01:23.380Z,57.07
2023-02-13T21:03:55.001Z,66.47
2023-02-13T21:06:31.338Z,58.03
2023-02-13T21:08:58.713Z,52.47
2023-02-13T21:11:28.224Z,33.93
2023-02-13T21:13:56.847Z,32.93
2023-02-13T21:16:26.150Z,31.33
2023-02-13T21:18:56.084Z,27.10
2023-02-13T21:21:24.405Z,29.47
2023-02-13T21:23:56.266Z,27.73
2023-02-13T21:26:24.072Z,27.43
2023-02-13T21:28:51.870Z,27.87
2023-02-13T21:31:25.550Z,27.67
2023-02-13T21:33:52.751Z,25.53
2023-02-13T21:36:19.798Z,26.43
2023-02-13T21:38:46.537Z,26.10
2023-02-13T21:41:18.374Z,25.57
2023-02-13T21:43:48.851Z,25.10
2023-02-13T21:46:27.454Z,25.03
2023-02-13T21:48:59.935Z,25.27
2023-02-13T21:51:28.968Z,23.80
2023-02-13T21:53:56.334Z,24.27
2023-02-13T21:56:25.947Z,22.87
2023-02-13T21:58:53.261Z,23.27
2023-02-13T22:01:35.038Z,23.97
2023-02-13T22:04:04.374Z,26.53
2023-02-13T22:06:33.122Z,24.67
2023-02-13T22:09:03.611Z,23.47
2023-02-13T22:11:30.920Z,23.70
2023-02-13T22:14:02.966Z,23.60
2023-02-13T22:16:30.862Z,24.97
2023-02-13T22:18:58.181Z,24.00
2023-02-13T22:21:27.070Z,22.47
2023-02-13T22:23:54.103Z,22.37
2023-02-13T22:26:27.098Z,23.00
2023-02-13T22:28:55.188Z,21.87
2023-02-13T22:31:25.371Z,23.43
2023-02-13T22:34:05.309Z,23.10
2023-02-13T22:36:34.003Z,20.13
2023-02-13T22:39:01.083Z,21.37
2023-02-13T22:41:28.474Z,20.13
2023-02-13T22:43:55.499Z,21.63
2023-02-13T22:46:25.517Z,23.13
2023-02-13T22:48:53.388Z,21.07
2023-02-13T22:51:23.427Z,21.50
2023-02-13T22:53:53.703Z,21.70
2023-02-13T22:56:20.724Z,21.00
2023-02-13T22:58:47.486Z,20.87
2023-02-13T23:01:17.025Z,21.00
2023-02-13T23:03:44.213Z,20.37
2023-02-13T23:06:12.616Z,21.00
2023-02-13T23:08:40.431Z,20.37
2023-02-13T23:11:28.166Z,20.53
2023-02-13T23:13:55.080Z,20.50
2023-02-13T23:16:21.846Z,20.73
2023-02-13T23:18:53.922Z,20.27
2023-02-13T23:21:20.835Z,20.60
2023-02-13T23:23:47.947Z,21.43
2023-02-13T23:26:15.505Z,20.33
2023-02-13T23:28:42.560Z,21.07
2023-02-13T23:31:09.546Z,19.63
2023-02-13T23:33:36.475Z,20.03
2023-02-13T23:36:03.450Z,19.67
2023-02-13T23:38:30.550Z,20.03
2023-02-13T23:40:57.746Z,19.47
2023-02-13T23:43:24.728Z,19.30
2023-02-13T23:45:51.411Z,18.23
2023-02-13T23:48:18.082Z,20.40
2023-02-13T23:50:44.909Z,20.47
2023-02-13T23:53:11.711Z,21.07
2023-02-13T23:55:38.404Z,22.30
2023-02-13T23:58:05.165Z,20.33
